createdAt,value
2018-03-25T00:00:58.816Z,70.50
2018-03-25T00:03:29.820Z,70.47
2018-03-25T00:06:00.257Z,70.54
2018-03-25T00:08:30.870Z,70.37
2018-03-25T00:11:00.814Z,70.26
2018-03-25T00:13:31.151Z,70.14
2018-03-25T00:16:02.303Z,70.10
2018-03-25T00:18:32.283Z,70.07
2018-03-25T00:21:03.527Z,70.06
2018-03-25T00:23:33.089Z,69.98
2018-03-25T00:26:03.158Z,70.06
2018-03-25T00:28:34.127Z,70.02
2018-03-25T00:31:04.286Z,69.96
2018-03-25T00:33:35.432Z,69.89
2018-03-25T00:36:04.881Z,69.91
2018-03-25T00:38:34.793Z,70.07
2018-03-25T00:41:08.824Z,69.84
2018-03-25T00:43:37.134Z,70.03
2018-03-25T00:46:07.548Z,70.52
2018-03-25T00:48:37.372Z,70.91
2018-03-25T00:51:07.396Z,71.01
2018-03-25T00:53:37.701Z,71.21
2018-03-25T00:56:07.634Z,71.77
2018-03-25T00:58:38.134Z,71.97
2018-03-25T01:01:12.927Z,71.84
2018-03-25T01:03:41.248Z,71.92
2018-03-25T01:06:10.130Z,71.93
2018-03-25T01:08:40.332Z,72.03
2018-03-25T01:11:10.235Z,72.15
2018-03-25T01:13:40.711Z,71.94
2018-03-25T01:16:12.031Z,71.91
2018-03-25T01:18:41.879Z,71.78
2018-03-25T01:21:11.507Z,71.71
2018-03-25T01:23:42.150Z,72.60
2018-03-25T01:26:13.021Z,72.59
2018-03-25T01:28:41.383Z,73.19
2018-03-25T01:31:12.999Z,73.41
2018-03-25T01:33:43.466Z,73.45
2018-03-25T01:36:13.348Z,73.49
2018-03-25T01:38:44.328Z,73.12
2018-03-25T01:41:14.532Z,73.11
2018-03-25T01:43:48.326Z,73.26
2018-03-25T01:46:16.843Z,73.06
2018-03-25T01:48:45.803Z,73.22
2018-03-25T01:51:16.467Z,73.81
2018-03-25T01:53:46.383Z,73.88
2018-03-25T01:56:20.248Z,73.68
2018-03-25T01:58:49.319Z,73.92
2018-03-25T02:01:18.166Z,74.29
2018-03-25T02:03:48.299Z,74.54
2018-03-25T02:06:18.346Z,75.22
2018-03-25T02:08:49.231Z,75.83
2018-03-25T02:11:19.604Z,76.17
2018-03-25T02:13:49.611Z,76.58
2018-03-25T02:16:20.183Z,77.19
2018-03-25T02:18:50.915Z,77.42
2018-03-25T02:21:21.868Z,77.55
2018-03-25T02:23:51.494Z,78.13
2018-03-25T02:26:21.604Z,78.19
2018-03-25T02:28:52.766Z,78.21
2018-03-25T02:31:22.741Z,78.26
2018-03-25T02:33:53.360Z,78.36
2018-03-25T02:36:23.358Z,78.34
2018-03-25T02:38:53.945Z,78.40
2018-03-25T02:41:24.624Z,78.37
2018-03-25T02:43:54.903Z,78.28
2018-03-25T02:46:26.977Z,78.43
2018-03-25T02:48:56.545Z,77.86
2018-03-25T02:51:25.646Z,78.17
2018-03-25T02:53:56.437Z,77.29
2018-03-25T02:56:26.319Z,77.09
2018-03-25T02:58:57.751Z,76.87
2018-03-25T03:01:27.760Z,76.75
2018-03-25T03:03:57.523Z,76.68
2018-03-25T03:06:28.486Z,76.68
2018-03-25T03:08:58.111Z,76.79
2018-03-25T03:11:31.427Z,76.64
2018-03-25T03:13:59.973Z,76.82
2018-03-25T03:16:29.470Z,76.75
2018-03-25T03:19:00.411Z,76.81
2018-03-25T03:21:30.361Z,77.09
2018-03-25T03:24:01.033Z,77.02
2018-03-25T03:26:31.299Z,76.96
2018-03-25T03:29:00.956Z,77.20
2018-03-25T03:31:32.310Z,76.88
2018-03-25T03:34:01.988Z,76.66
2018-03-25T03:36:33.239Z,77.19
2018-03-25T03:39:03.969Z,76.81
2018-03-25T03:41:33.318Z,77.12
2018-03-25T03:44:04.724Z,76.94
2018-03-25T03:46:34.275Z,76.94
2018-03-25T03:49:07.151Z,77.16
2018-03-25T03:51:36.049Z,77.66
2018-03-25T03:54:05.330Z,77.41
2018-03-25T03:56:38.383Z,77.65
2018-03-25T03:59:06.774Z,77.55
2018-03-25T04:01:37.360Z,77.12
2018-03-25T04:04:07.113Z,77.41
2018-03-25T04:06:37.595Z,77.00
2018-03-25T04:09:08.570Z,77.14
2018-03-25T04:11:38.363Z,76.98
2018-03-25T04:14:09.143Z,76.85
2018-03-25T04:16:39.403Z,76.88
2018-03-25T04:19:09.347Z,76.93
2018-03-25T04:21:40.349Z,76.91
2018-03-25T04:24:10.726Z,76.82
2018-03-25T04:26:43.698Z,76.82
2018-03-25T04:29:12.314Z,76.92
2018-03-25T04:31:41.477Z,76.88
2018-03-25T04:34:12.169Z,77.17
2018-03-25T04:36:42.162Z,76.81
2018-03-25T04:39:13.290Z,76.71
2018-03-25T04:41:43.478Z,76.72
2018-03-25T04:44:13.421Z,76.86
2018-03-25T04:46:44.342Z,76.92
2018-03-25T04:49:14.474Z,76.89
2018-03-25T04:51:45.285Z,77.01
2018-03-25T04:54:15.298Z,77.08
2018-03-25T04:56:45.329Z,76.98
2018-03-25T04:59:16.415Z,76.84
2018-03-25T05:01:46.476Z,76.81
2018-03-25T05:04:19.898Z,76.62
2018-03-25T05:06:48.411Z,76.46
2018-03-25T05:09:17.570Z,76.27
2018-03-25T05:11:48.311Z,75.97
2018-03-25T05:14:18.148Z,75.72
2018-03-25T05:16:49.182Z,75.75
2018-03-25T05:19:19.505Z,75.15
2018-03-25T05:21:49.778Z,74.86
2018-03-25T05:24:20.280Z,74.54
2018-03-25T05:26:50.315Z,74.20
2018-03-25T05:29:21.404Z,73.87
2018-03-25T05:31:51.448Z,73.32
2018-03-25T05:34:21.255Z,72.85
2018-03-25T05:36:52.325Z,72.46
2018-03-25T05:39:22.561Z,72.23
2018-03-25T05:41:53.411Z,71.98
2018-03-25T05:44:23.314Z,71.71
2018-03-25T05:46:53.396Z,71.51
2018-03-25T05:49:24.467Z,71.17
2018-03-25T05:51:54.952Z,70.89
2018-03-25T05:54:25.465Z,70.65
2018-03-25T05:56:55.332Z,70.32
2018-03-25T05:59:25.199Z,69.87
2018-03-25T06:01:56.414Z,69.53
2018-03-25T06:04:26.417Z,69.29
2018-03-25T06:06:57.758Z,68.76
2018-03-25T06:09:27.487Z,68.58
2018-03-25T06:11:57.388Z,67.91
2018-03-25T06:14:28.448Z,67.77
2018-03-25T06:16:58.379Z,67.60
2018-03-25T06:19:29.416Z,67.06
2018-03-25T06:21:59.723Z,66.56
2018-03-25T06:24:29.505Z,66.21
2018-03-25T06:27:01.174Z,65.71
2018-03-25T06:29:30.468Z,65.36
2018-03-25T06:32:01.071Z,65.02
2018-03-25T06:34:31.382Z,64.83
2018-03-25T06:37:01.418Z,64.65
2018-03-25T06:39:32.250Z,64.02
2018-03-25T06:42:02.457Z,63.85
2018-03-25T06:44:33.041Z,63.56
2018-03-25T06:47:03.396Z,63.20
2018-03-25T06:49:33.483Z,63.11
2018-03-25T06:52:04.390Z,62.87
2018-03-25T06:54:34.578Z,62.60
2018-03-25T06:57:05.477Z,62.14
2018-03-25T06:59:36.028Z,61.90
2018-03-25T07:02:06.088Z,61.98
2018-03-25T07:05:04.866Z,61.72
2018-03-25T07:07:37.449Z,60.97
2018-03-25T07:10:16.745Z,60.78
2018-03-25T07:12:45.096Z,60.36
2018-03-25T07:15:13.445Z,59.93
2018-03-25T07:17:43.140Z,59.69
2018-03-25T07:20:11.452Z,59.51
2018-03-25T07:22:40.896Z,59.35
2018-03-25T07:25:10.213Z,58.93
2018-03-25T07:27:46.031Z,58.24
2018-03-25T07:30:14.388Z,57.89
2018-03-25T07:32:43.290Z,57.45
2018-03-25T07:35:13.025Z,57.31
2018-03-25T07:37:43.082Z,56.92
2018-03-25T07:40:14.511Z,57.03
2018-03-25T07:42:47.309Z,56.72
2018-03-25T07:45:15.677Z,56.30
2018-03-25T07:47:45.005Z,55.79
2018-03-25T07:50:15.180Z,56.18
2018-03-25T07:52:56.814Z,56.10
2018-03-25T07:55:25.164Z,55.78
2018-03-25T07:57:53.488Z,55.37
2018-03-25T08:00:21.844Z,55.34
2018-03-25T08:02:50.964Z,54.99
2018-03-25T08:05:19.287Z,54.68
2018-03-25T08:07:48.245Z,54.93
2018-03-25T08:10:16.585Z,54.55
2018-03-25T08:12:44.977Z,54.64
2018-03-25T08:15:14.929Z,54.46
2018-03-25T08:17:44.060Z,54.92
2018-03-25T08:20:13.664Z,54.25
2018-03-25T08:22:42.766Z,55.32
2018-03-25T08:25:11.952Z,54.32
2018-03-25T08:27:40.284Z,54.46
2018-03-25T08:30:08.665Z,55.35
2018-03-25T08:32:37.049Z,51.64
2018-03-25T08:35:05.386Z,50.71
2018-03-25T08:37:34.471Z,50.94
2018-03-25T08:40:03.655Z,50.45
2018-03-25T08:42:32.022Z,50.65
2018-03-25T08:45:00.383Z,50.73
2018-03-25T08:47:28.690Z,49.73
2018-03-25T08:49:57.057Z,49.09
2018-03-25T08:52:25.430Z,49.95
2018-03-25T08:54:54.660Z,49.75
2018-03-25T08:57:23.793Z,50.27
2018-03-25T08:59:52.202Z,49.92
2018-03-25T09:02:20.586Z,49.54
2018-03-25T09:04:50.176Z,49.90
2018-03-25T09:07:18.494Z,49.84
2018-03-25T09:09:48.020Z,50.06
2018-03-25T09:12:16.995Z,50.10
2018-03-25T09:14:46.882Z,49.54
2018-03-25T09:17:15.998Z,49.97
2018-03-25T09:19:45.152Z,49.34
2018-03-25T09:22:13.521Z,49.47
2018-03-25T09:24:41.910Z,49.56
2018-03-25T09:27:10.289Z,49.59
2018-03-25T09:29:39.429Z,49.44
2018-03-25T09:32:08.640Z,49.29
2018-03-25T09:34:37.050Z,49.76
2018-03-25T09:37:05.497Z,49.03
2018-03-25T09:39:33.874Z,48.67
2018-03-25T09:42:02.255Z,48.80
2018-03-25T09:44:31.484Z,48.98
2018-03-25T09:46:59.895Z,48.69
2018-03-25T09:49:28.210Z,48.45
2018-03-25T09:51:57.548Z,48.85
2018-03-25T09:54:25.937Z,48.90
2018-03-25T09:56:55.493Z,48.97
2018-03-25T09:59:23.814Z,48.90
2018-03-25T10:01:57.580Z,48.77
2018-03-25T10:04:25.904Z,48.92
2018-03-25T10:06:54.637Z,48.57
2018-03-25T10:09:23.008Z,48.29
2018-03-25T10:11:51.705Z,48.49
2018-03-25T10:14:20.092Z,48.31
2018-03-25T10:16:49.266Z,48.29
2018-03-25T10:19:18.381Z,48.59
2018-03-25T10:21:46.713Z,48.04
2018-03-25T10:24:15.081Z,48.32
2018-03-25T10:26:44.321Z,47.94
2018-03-25T10:29:13.401Z,50.74
2018-03-25T10:31:42.807Z,50.38
2018-03-25T10:34:11.133Z,47.76
2018-03-25T10:36:39.512Z,58.70
2018-03-25T10:39:07.855Z,51.25
2018-03-25T10:41:36.211Z,48.75
2018-03-25T10:44:05.331Z,48.04
2018-03-25T10:46:33.722Z,45.99
2018-03-25T10:49:02.083Z,44.39
2018-03-25T10:51:30.418Z,46.28
2018-03-25T10:53:58.765Z,45.43
2018-03-25T10:56:27.543Z,49.42
2018-03-25T10:58:55.903Z,44.86
2018-03-25T11:01:25.006Z,46.12
2018-03-25T11:03:53.352Z,42.47
2018-03-25T11:06:21.709Z,45.07
2018-03-25T11:08:50.079Z,42.87
2018-03-25T11:11:18.407Z,41.48
2018-03-25T11:13:47.547Z,42.12
2018-03-25T11:16:15.916Z,43.54
2018-03-25T11:18:44.270Z,42.33
2018-03-25T11:21:12.595Z,42.19
2018-03-25T11:23:40.986Z,43.51
2018-03-25T11:26:09.333Z,44.08
2018-03-25T11:28:37.735Z,42.79
2018-03-25T11:31:06.079Z,41.37
2018-03-25T11:33:34.433Z,41.35
2018-03-25T11:36:03.679Z,41.40
2018-03-25T11:38:32.056Z,40.83
2018-03-25T11:41:00.421Z,40.78
2018-03-25T11:43:28.831Z,43.88
2018-03-25T11:45:57.198Z,42.97
2018-03-25T11:48:25.523Z,42.17
2018-03-25T11:50:53.862Z,41.10
2018-03-25T11:53:22.990Z,40.75
2018-03-25T11:55:51.379Z,40.46
2018-03-25T11:58:19.759Z,41.93
2018-03-25T12:00:48.103Z,41.29
2018-03-25T12:03:16.478Z,40.81
2018-03-25T12:05:44.806Z,40.39
2018-03-25T12:08:13.167Z,39.85
2018-03-25T12:10:41.530Z,37.48
2018-03-25T12:13:09.883Z,37.73
2018-03-25T12:15:38.252Z,38.51
2018-03-25T12:18:06.583Z,39.31
2018-03-25T12:20:34.955Z,40.58
2018-03-25T12:23:03.270Z,40.74
2018-03-25T12:25:31.743Z,39.98
2018-03-25T12:28:00.139Z,39.97
2018-03-25T12:30:28.495Z,39.48
2018-03-25T12:32:56.866Z,40.77
2018-03-25T12:35:25.271Z,39.69
2018-03-25T12:37:54.246Z,39.85
2018-03-25T12:40:22.702Z,40.78
2018-03-25T12:42:51.070Z,39.72
2018-03-25T12:45:19.447Z,39.61
2018-03-25T12:47:47.836Z,38.88
2018-03-25T12:50:16.250Z,38.99
2018-03-25T12:52:44.646Z,37.16
2018-03-25T12:55:13.030Z,37.59
2018-03-25T12:57:41.413Z,38.34
2018-03-25T13:00:10.532Z,38.73
2018-03-25T13:02:38.897Z,38.43
2018-03-25T13:05:08.042Z,37.99
2018-03-25T13:07:36.422Z,38.18
2018-03-25T13:10:04.762Z,36.50
2018-03-25T13:12:33.094Z,37.54
2018-03-25T13:15:01.456Z,38.49
2018-03-25T13:17:29.802Z,36.78
2018-03-25T13:19:59.118Z,38.13
2018-03-25T13:22:27.501Z,39.22
2018-03-25T13:24:55.843Z,39.52
2018-03-25T13:27:24.222Z,39.15
2018-03-25T13:29:53.460Z,39.90
2018-03-25T13:32:22.638Z,39.85
2018-03-25T13:34:50.970Z,39.71
2018-03-25T13:37:19.332Z,40.06
2018-03-25T13:39:47.796Z,40.21
2018-03-25T13:42:16.167Z,40.41
2018-03-25T13:44:44.556Z,40.25
2018-03-25T13:47:12.970Z,40.54
2018-03-25T13:49:41.309Z,40.50
2018-03-25T13:52:09.674Z,40.58
2018-03-25T13:54:39.940Z,40.60
2018-03-25T13:57:08.347Z,40.28
2018-03-25T13:59:36.798Z,40.33
2018-03-25T14:02:05.919Z,40.18
2018-03-25T14:04:34.274Z,40.92
2018-03-25T14:07:02.762Z,40.72
2018-03-25T14:09:31.110Z,41.26
2018-03-25T14:11:59.492Z,41.38
2018-03-25T14:14:27.902Z,41.25
2018-03-25T14:16:57.014Z,41.21
2018-03-25T14:19:25.397Z,40.97
2018-03-25T14:21:53.801Z,40.74
2018-03-25T14:24:23.088Z,40.78
2018-03-25T14:26:51.421Z,40.60
2018-03-25T14:29:19.782Z,40.24
2018-03-25T14:31:48.221Z,40.64
2018-03-25T14:34:16.557Z,41.07
2018-03-25T14:36:44.871Z,41.15
2018-03-25T14:39:13.227Z,40.67
2018-03-25T14:41:42.309Z,41.38
2018-03-25T14:44:10.682Z,41.40
2018-03-25T14:46:38.996Z,41.40
2018-03-25T14:49:07.373Z,41.07
2018-03-25T14:51:35.785Z,41.25
2018-03-25T14:54:04.949Z,41.21
2018-03-25T14:56:33.339Z,41.45
2018-03-25T15:01:59.688Z,41.31
2018-03-25T15:04:27.995Z,41.42
2018-03-25T15:06:56.349Z,41.53
2018-03-25T15:09:24.701Z,41.82
2018-03-25T15:11:53.085Z,42.01
2018-03-25T15:14:22.467Z,42.00
2018-03-25T15:16:51.615Z,42.15
2018-03-25T15:19:20.134Z,43.06
2018-03-25T15:21:48.501Z,42.98
2018-03-25T15:24:17.033Z,42.97
2018-03-25T15:26:46.953Z,43.96
2018-03-25T15:29:16.836Z,43.50
2018-03-25T15:31:46.317Z,42.82
2018-03-25T15:34:14.706Z,43.91
2018-03-25T15:36:43.830Z,43.54
2018-03-25T15:39:12.160Z,43.49
2018-03-25T15:41:40.540Z,43.82
2018-03-25T15:44:09.025Z,43.66
2018-03-25T15:46:37.376Z,43.78
2018-03-25T15:49:05.692Z,43.93
2018-03-25T15:51:34.886Z,44.07
2018-03-25T15:54:03.681Z,43.92
2018-03-25T15:56:33.160Z,44.40
2018-03-25T15:59:01.529Z,45.01
2018-03-25T16:01:30.048Z,45.33
2018-03-25T16:03:58.835Z,45.42
2018-03-25T16:06:27.955Z,45.27
2018-03-25T16:08:56.344Z,45.61
2018-03-25T16:11:24.728Z,45.77
2018-03-25T16:13:53.102Z,45.91
2018-03-25T16:16:29.398Z,45.86
2018-03-25T16:19:03.213Z,46.35
2018-03-25T16:21:34.031Z,46.37
2018-03-25T16:24:02.768Z,46.46
2018-03-25T16:26:32.450Z,46.73
2018-03-25T16:29:01.842Z,47.02
2018-03-25T16:31:31.550Z,47.25
2018-03-25T16:34:01.693Z,47.88
2018-03-25T16:36:30.897Z,48.10
2018-03-25T16:39:00.393Z,48.40
2018-03-25T16:41:29.731Z,49.11
2018-03-25T16:43:59.002Z,49.22
2018-03-25T16:46:30.743Z,49.80
2018-03-25T16:48:59.332Z,50.17
2018-03-25T16:51:27.819Z,50.46
2018-03-25T16:53:56.323Z,50.74
2018-03-25T16:56:25.437Z,51.01
2018-03-25T16:58:54.018Z,51.08
2018-03-25T17:01:22.564Z,51.53
2018-03-25T17:03:51.196Z,51.65
2018-03-25T17:06:19.631Z,52.34
2018-03-25T17:08:49.007Z,52.31
2018-03-25T17:11:17.341Z,52.83
2018-03-25T17:13:47.199Z,52.99
2018-03-25T17:16:16.621Z,53.48
2018-03-25T17:18:46.279Z,53.55
2018-03-25T17:21:14.683Z,54.85
2018-03-25T17:23:43.803Z,54.79
2018-03-25T17:26:12.900Z,55.17
2018-03-25T17:28:42.468Z,55.41
2018-03-25T17:31:10.833Z,55.81
2018-03-25T17:33:39.177Z,55.45
2018-03-25T17:36:08.369Z,55.93
2018-03-25T17:38:36.704Z,55.69
2018-03-25T17:41:05.084Z,56.22
2018-03-25T17:43:34.218Z,56.38
2018-03-25T17:46:03.613Z,56.67
2018-03-25T17:51:17.049Z,56.90
2018-03-25T17:53:45.394Z,57.05
2018-03-25T17:56:14.637Z,57.99
2018-03-25T17:58:50.173Z,57.58
2018-03-25T18:01:18.588Z,57.85
2018-03-25T18:03:48.924Z,57.91
2018-03-25T18:06:18.993Z,58.69
2018-03-25T18:08:47.418Z,58.19
2018-03-25T18:11:15.744Z,58.12
2018-03-25T18:13:44.100Z,58.46
2018-03-25T18:16:12.450Z,59.08
2018-03-25T18:18:40.812Z,59.54
2018-03-25T18:21:09.274Z,59.36
2018-03-25T18:23:38.461Z,59.67
2018-03-25T18:26:08.424Z,59.70
2018-03-25T18:28:36.783Z,59.97
2018-03-25T18:31:06.309Z,59.96
2018-03-25T18:33:34.647Z,59.95
2018-03-25T18:36:03.840Z,60.63
2018-03-25T18:38:32.968Z,60.34
2018-03-25T18:41:01.316Z,60.35
2018-03-25T18:43:30.442Z,61.24
2018-03-25T18:45:58.798Z,61.28
2018-03-25T18:48:27.244Z,61.90
2018-03-25T18:50:56.774Z,61.72
2018-03-25T18:53:27.390Z,61.60
2018-03-25T18:55:55.724Z,62.24
2018-03-25T18:58:24.132Z,61.84
2018-03-25T19:00:52.484Z,62.12
2018-03-25T19:03:21.642Z,61.88
2018-03-25T19:05:51.138Z,62.96
2018-03-25T19:08:21.078Z,63.28
2018-03-25T19:10:50.790Z,63.44
2018-03-25T19:13:19.148Z,63.29
2018-03-25T19:15:49.058Z,63.47
2018-03-25T19:18:18.167Z,63.98
2018-03-25T19:20:47.882Z,64.43
2018-03-25T19:23:16.256Z,64.48
2018-03-25T19:25:47.058Z,64.06
2018-03-25T19:28:16.736Z,63.94
2018-03-25T19:30:45.905Z,64.58
2018-03-25T19:33:14.277Z,65.08
2018-03-25T19:35:43.097Z,64.64
2018-03-25T19:38:11.483Z,65.13
2018-03-25T19:40:41.129Z,65.11
2018-03-25T19:43:10.260Z,64.87
2018-03-25T19:45:38.713Z,65.16
2018-03-25T19:48:07.831Z,65.45
2018-03-25T19:50:36.224Z,65.26
2018-03-25T19:53:04.584Z,65.48
2018-03-25T19:55:32.917Z,65.37
2018-03-25T19:58:02.117Z,65.03
2018-03-25T20:00:32.335Z,64.82
2018-03-25T20:03:00.707Z,65.12
2018-03-25T20:05:29.627Z,64.60
2018-03-25T20:07:58.798Z,64.48
2018-03-25T20:10:28.018Z,64.49
2018-03-25T20:12:57.756Z,64.89
2018-03-25T20:15:28.067Z,64.92
2018-03-25T20:17:56.443Z,64.31
2018-03-25T20:20:24.760Z,64.53
2018-03-25T20:22:53.188Z,64.36
2018-03-25T20:25:22.324Z,64.31
2018-03-25T20:27:50.634Z,63.86
2018-03-25T20:30:19.107Z,63.67
2018-03-25T20:32:47.457Z,63.18
2018-03-25T20:35:17.178Z,62.88
2018-03-25T20:37:45.579Z,62.97
2018-03-25T20:40:13.923Z,62.85
2018-03-25T20:42:42.263Z,62.53
2018-03-25T20:45:11.404Z,62.28
2018-03-25T20:47:39.734Z,62.11
2018-03-25T20:50:08.843Z,61.89
2018-03-25T20:52:38.138Z,61.75
2018-03-25T20:55:06.571Z,61.61
2018-03-25T20:57:34.831Z,61.59
2018-03-25T21:00:03.161Z,61.58
2018-03-25T21:02:32.894Z,61.61
2018-03-25T21:05:01.989Z,61.72
2018-03-25T21:07:30.327Z,61.65
2018-03-25T21:09:58.673Z,61.34
2018-03-25T21:12:27.030Z,61.32
2018-03-25T21:14:55.468Z,61.36
2018-03-25T21:17:23.851Z,61.23
2018-03-25T21:19:52.939Z,61.25
2018-03-25T21:22:21.291Z,61.22
2018-03-25T21:24:49.655Z,61.45
2018-03-25T21:27:17.990Z,61.34
2018-03-25T21:29:47.109Z,61.29
2018-03-25T21:32:16.196Z,61.31
2018-03-25T21:34:44.568Z,61.31
2018-03-25T21:37:12.888Z,61.42
2018-03-25T21:39:41.196Z,61.15
2018-03-25T21:42:09.541Z,61.12
2018-03-25T21:44:37.859Z,61.06
2018-03-25T21:47:06.974Z,61.10
2018-03-25T21:49:35.290Z,61.20
2018-03-25T21:52:03.612Z,61.22
2018-03-25T21:54:32.731Z,61.29
2018-03-25T21:57:01.058Z,61.28
2018-03-25T21:59:29.411Z,60.33
2018-03-25T22:01:57.748Z,60.25
2018-03-25T22:04:26.881Z,61.02
2018-03-25T22:06:55.188Z,60.84
2018-03-25T22:09:23.548Z,60.85
2018-03-25T22:11:51.866Z,61.45
2018-03-25T22:14:20.963Z,61.37
2018-03-25T22:16:50.076Z,61.26
2018-03-25T22:19:18.389Z,61.22
2018-03-25T22:21:46.709Z,61.12
2018-03-25T22:24:15.836Z,61.41
2018-03-25T22:26:44.182Z,61.59
2018-03-25T22:29:13.261Z,61.65
2018-03-25T22:31:42.486Z,62.01
2018-03-25T22:34:11.616Z,61.70
2018-03-25T22:36:39.930Z,61.79
2018-03-25T22:39:08.244Z,61.76
2018-03-25T22:41:36.582Z,61.61
2018-03-25T22:44:04.933Z,61.57
2018-03-25T22:46:33.295Z,61.61
2018-03-25T22:49:02.025Z,61.70
2018-03-25T22:51:30.430Z,61.78
2018-03-25T22:53:59.513Z,61.57
2018-03-25T22:56:28.259Z,61.66
2018-03-25T22:58:56.572Z,61.97
2018-03-25T23:01:25.697Z,61.91
2018-03-25T23:03:54.056Z,61.91
2018-03-25T23:06:23.174Z,62.12
2018-03-25T23:08:51.502Z,62.07
2018-03-25T23:11:19.845Z,62.13
2018-03-25T23:13:48.147Z,62.31
2018-03-25T23:16:16.505Z,62.24
2018-03-25T23:18:44.844Z,62.20
2018-03-25T23:21:13.973Z,62.13
2018-03-25T23:23:42.307Z,62.05
2018-03-25T23:26:11.454Z,62.21
2018-03-25T23:28:39.784Z,62.47
2018-03-25T23:31:08.879Z,62.37
2018-03-25T23:33:37.965Z,62.12
2018-03-25T23:36:07.082Z,61.97
2018-03-25T23:38:35.453Z,62.10
2018-03-25T23:41:03.771Z,61.92
2018-03-25T23:43:32.093Z,61.97
2018-03-25T23:46:01.206Z,61.98
2018-03-25T23:48:29.561Z,62.05
2018-03-25T23:50:58.680Z,62.21
2018-03-25T23:53:27.006Z,62.21
2018-03-25T23:55:55.353Z,62.23
2018-03-25T23:58:23.705Z,62.30
